EJU59UB LIRN-LFMN
Flight info
| Callsign | EJU59UB |
|---|---|
| Flight time | N/A |
| Altitude | 34000 |
| Route | VEXUV DCT PNZ DCT RIFFI DCT ELVIN DCT TOBGA/N0415F300 DCT DOBIM DCT AKUTI R16 KERIT |
| Aircraft | A320/M-SDE2E3FGHIJ1RWXYZ/LB1 |
Departure
| Time | 2026-05-05 04:21 |
|---|---|
| Airport | Naples International Airport (LIRN) |
Arrival
| Time | N/A |
|---|---|
| Airport | Nice-Côte d'Azur Airport (LFMN) |
| Time | Latitude | Longitude | Altitude | Speed | Heading |
|---|---|---|---|---|---|
| 2026-05-05 03:38 | 40.88241 | 14.28806 | 279 ft | 0 kts | 328° |
| 2026-05-05 04:13 | 40.88234 | 14.28811 | 277 ft | 4 kts | 332° |
| 2026-05-05 04:13 | 40.88210 | 14.28823 | 277 ft | 4 kts | 354° |
| 2026-05-05 04:13 | 40.88184 | 14.28821 | 280 ft | 4 kts | 17° |
| 2026-05-05 04:13 | 40.88161 | 14.28807 | 283 ft | 4 kts | 44° |
| 2026-05-05 04:14 | 40.88155 | 14.28798 | 285 ft | 1 kts | 53° |
| 2026-05-05 04:16 | 40.88166 | 14.28817 | 281 ft | 7 kts | 52° |
| 2026-05-05 04:17 | 40.88211 | 14.28894 | 276 ft | 13 kts | 52° |
| 2026-05-05 04:17 | 40.88279 | 14.29011 | 273 ft | 19 kts | 52° |
| 2026-05-05 04:17 | 40.88354 | 14.29141 | 270 ft | 18 kts | 52° |
| 2026-05-05 04:17 | 40.88426 | 14.29265 | 267 ft | 14 kts | 52° |
| 2026-05-05 04:18 | 40.88498 | 14.29390 | 264 ft | 20 kts | 52° |
| 2026-05-05 04:18 | 40.88580 | 14.29531 | 260 ft | 21 kts | 52° |
| 2026-05-05 04:18 | 40.88669 | 14.29687 | 255 ft | 15 kts | 52° |
| 2026-05-05 04:18 | 40.88743 | 14.29813 | 251 ft | 17 kts | 52° |
| 2026-05-05 04:19 | 40.88823 | 14.29952 | 247 ft | 15 kts | 52° |
| 2026-05-05 04:19 | 40.88900 | 14.30086 | 242 ft | 21 kts | 52° |
| 2026-05-05 04:19 | 40.88971 | 14.30208 | 237 ft | 17 kts | 52° |
| 2026-05-05 04:19 | 40.89065 | 14.30241 | 234 ft | 16 kts | 333° |
| 2026-05-05 04:20 | 40.89099 | 14.30130 | 236 ft | 15 kts | 238° |
| 2026-05-05 04:20 | 40.89009 | 14.29939 | 243 ft | 54 kts | 238° |
| 2026-05-05 04:20 | 40.88661 | 14.29204 | 264 ft | 131 kts | 238° |
| 2026-05-05 04:20 | 40.88081 | 14.28018 | 701 ft | 154 kts | 234° |
| 2026-05-05 04:21 | 40.87438 | 14.26928 | 1690 ft | 148 kts | 220° |
| 2026-05-05 04:21 | 40.86549 | 14.26446 | 2368 ft | 140 kts | 181° |
| 2026-05-05 04:21 | 40.85526 | 14.26586 | 2593 ft | 158 kts | 173° |
| 2026-05-05 04:21 | 40.84357 | 14.26770 | 2757 ft | 181 kts | 174° |
| 2026-05-05 04:22 | 40.82997 | 14.26971 | 2917 ft | 205 kts | 174° |
| 2026-05-05 04:22 | 40.81615 | 14.27170 | 3674 ft | 195 kts | 175° |
| 2026-05-05 04:22 | 40.80273 | 14.27360 | 4286 ft | 194 kts | 176° |
| 2026-05-05 04:22 | 40.78923 | 14.27548 | 4835 ft | 197 kts | 176° |
| 2026-05-05 04:23 | 40.77550 | 14.27734 | 5415 ft | 199 kts | 176° |
| 2026-05-05 04:23 | 40.76160 | 14.27924 | 6027 ft | 202 kts | 177° |
| 2026-05-05 04:23 | 40.74735 | 14.28117 | 6628 ft | 205 kts | 177° |
| 2026-05-05 04:23 | 40.73329 | 14.28305 | 7199 ft | 206 kts | 178° |
| 2026-05-05 04:24 | 40.71900 | 14.28389 | 7770 ft | 206 kts | 191° |
| 2026-05-05 04:24 | 40.70539 | 14.27825 | 8285 ft | 207 kts | 213° |
| 2026-05-05 04:24 | 40.69377 | 14.26730 | 8977 ft | 201 kts | 219° |
| 2026-05-05 04:25 | 40.67167 | 14.24496 | 9705 ft | 218 kts | 220° |
| 2026-05-05 04:25 | 40.65996 | 14.23287 | 10479 ft | 209 kts | 220° |
| 2026-05-05 04:25 | 40.64859 | 14.22103 | 11088 ft | 209 kts | 220° |
| 2026-05-05 04:25 | 40.63702 | 14.20885 | 11457 ft | 223 kts | 221° |
| 2026-05-05 04:26 | 40.62535 | 14.19454 | 11914 ft | 226 kts | 227° |
| 2026-05-05 04:26 | 40.61366 | 14.17899 | 12206 ft | 249 kts | 225° |
| 2026-05-05 04:26 | 40.60048 | 14.16233 | 12336 ft | 276 kts | 224° |
| 2026-05-05 04:26 | 40.58583 | 14.14465 | 12743 ft | 291 kts | 223° |
| 2026-05-05 04:27 | 40.57055 | 14.12676 | 13396 ft | 297 kts | 222° |
| 2026-05-05 04:27 | 40.55490 | 14.10875 | 14068 ft | 302 kts | 221° |
| 2026-05-05 04:27 | 40.53892 | 14.09057 | 14720 ft | 304 kts | 221° |
| 2026-05-05 04:27 | 40.52282 | 14.07235 | 15392 ft | 306 kts | 222° |
| 2026-05-05 04:28 | 40.50791 | 14.05243 | 16056 ft | 307 kts | 234° |
| 2026-05-05 04:28 | 40.49693 | 14.02840 | 16729 ft | 307 kts | 248° |
| 2026-05-05 04:28 | 40.48943 | 14.00212 | 17415 ft | 308 kts | 251° |
| 2026-05-05 04:28 | 40.48209 | 13.97569 | 18116 ft | 309 kts | 251° |
| 2026-05-05 04:29 | 40.47463 | 13.94913 | 18750 ft | 310 kts | 251° |
| 2026-05-05 04:29 | 40.46709 | 13.92248 | 19323 ft | 312 kts | 251° |
| 2026-05-05 04:29 | 40.45944 | 13.89563 | 19892 ft | 315 kts | 251° |
| 2026-05-05 04:29 | 40.45175 | 13.86861 | 20467 ft | 317 kts | 252° |
| 2026-05-05 04:30 | 40.44404 | 13.84144 | 21015 ft | 319 kts | 251° |
| 2026-05-05 04:30 | 40.43648 | 13.81405 | 21587 ft | 320 kts | 256° |
| 2026-05-05 04:30 | 40.43316 | 13.78524 | 22135 ft | 320 kts | 271° |
| 2026-05-05 04:30 | 40.43609 | 13.75634 | 22633 ft | 324 kts | 285° |
| 2026-05-05 04:31 | 40.44532 | 13.72857 | 22764 ft | 341 kts | 301° |
| 2026-05-05 04:31 | 40.46015 | 13.70343 | 22997 ft | 354 kts | 307° |
| 2026-05-05 04:31 | 40.47576 | 13.67822 | 23463 ft | 358 kts | 306° |
| 2026-05-05 04:31 | 40.49152 | 13.65264 | 23948 ft | 361 kts | 306° |
| 2026-05-05 04:32 | 40.50730 | 13.62687 | 24422 ft | 363 kts | 306° |
| 2026-05-05 04:32 | 40.52314 | 13.60094 | 24895 ft | 365 kts | 306° |
| 2026-05-05 04:32 | 40.53906 | 13.57490 | 25359 ft | 367 kts | 306° |
| 2026-05-05 04:32 | 40.55511 | 13.54865 | 25819 ft | 369 kts | 306° |
| 2026-05-05 04:33 | 40.57123 | 13.52221 | 26253 ft | 372 kts | 306° |
| 2026-05-05 04:33 | 40.58744 | 13.49557 | 26688 ft | 374 kts | 306° |
| 2026-05-05 04:33 | 40.60369 | 13.46880 | 27113 ft | 376 kts | 305° |
| 2026-05-05 04:33 | 40.61996 | 13.44189 | 27530 ft | 377 kts | 305° |
| 2026-05-05 04:34 | 40.63639 | 13.41477 | 27942 ft | 379 kts | 305° |
| 2026-05-05 04:34 | 40.65289 | 13.38755 | 28339 ft | 381 kts | 305° |
| 2026-05-05 04:34 | 40.66953 | 13.36014 | 28730 ft | 383 kts | 305° |
| 2026-05-05 04:34 | 40.68618 | 13.33269 | 29115 ft | 385 kts | 305° |
| 2026-05-05 04:35 | 40.70298 | 13.30497 | 29490 ft | 387 kts | 305° |
| 2026-05-05 04:35 | 40.71981 | 13.27719 | 29860 ft | 389 kts | 305° |
| 2026-05-05 04:35 | 40.73673 | 13.24920 | 30209 ft | 391 kts | 305° |
| 2026-05-05 04:35 | 40.75371 | 13.22106 | 30515 ft | 393 kts | 305° |
| 2026-05-05 04:36 | 40.77072 | 13.19280 | 30832 ft | 394 kts | 305° |
| 2026-05-05 04:36 | 40.78779 | 13.16437 | 31135 ft | 395 kts | 305° |
| 2026-05-05 04:36 | 40.80486 | 13.13595 | 31479 ft | 395 kts | 305° |
| 2026-05-05 04:36 | 40.82192 | 13.10754 | 31913 ft | 394 kts | 304° |
| 2026-05-05 04:37 | 40.83884 | 13.07932 | 32324 ft | 392 kts | 304° |
| 2026-05-05 04:37 | 40.85575 | 13.05112 | 32738 ft | 390 kts | 304° |
| 2026-05-05 04:37 | 40.87259 | 13.02303 | 33152 ft | 389 kts | 304° |
| 2026-05-05 04:37 | 40.88931 | 12.99509 | 33569 ft | 387 kts | 304° |
| 2026-05-05 04:38 | 40.90595 | 12.96726 | 33974 ft | 386 kts | 304° |
| 2026-05-05 04:38 | 40.92396 | 12.94078 | 34084 ft | 385 kts | 309° |
| 2026-05-05 04:38 | 40.94233 | 12.91600 | 34086 ft | 371 kts | 310° |
| 2026-05-05 04:38 | 40.96013 | 12.89214 | 34084 ft | 359 kts | 309° |
| 2026-05-05 04:39 | 40.97747 | 12.86880 | 34090 ft | 354 kts | 309° |
| 2026-05-05 04:39 | 41.01175 | 12.82233 | 34103 ft | 352 kts | 309° |
| 2026-05-05 04:40 | 41.04579 | 12.77590 | 34086 ft | 351 kts | 309° |
| 2026-05-05 04:40 | 41.07993 | 12.72941 | 34089 ft | 351 kts | 308° |
| 2026-05-05 04:41 | 41.11384 | 12.68329 | 34089 ft | 349 kts | 308° |
| 2026-05-05 04:41 | 41.14775 | 12.63713 | 34087 ft | 349 kts | 308° |
| 2026-05-05 04:42 | 41.18155 | 12.59098 | 34083 ft | 348 kts | 308° |
| 2026-05-05 04:42 | 41.21530 | 12.54478 | 34081 ft | 348 kts | 308° |
| 2026-05-05 04:43 | 41.24905 | 12.49859 | 34079 ft | 348 kts | 308° |
| 2026-05-05 04:43 | 41.27714 | 12.46021 | 34075 ft | 348 kts | 308° |
| 2026-05-05 04:44 | 41.31086 | 12.41403 | 34074 ft | 348 kts | 308° |
| 2026-05-05 04:44 | 41.34447 | 12.36771 | 34103 ft | 347 kts | 308° |
| 2026-05-05 04:45 | 41.37822 | 12.32127 | 34094 ft | 346 kts | 308° |
| 2026-05-05 04:45 | 41.41145 | 12.27549 | 34090 ft | 346 kts | 308° |
| 2026-05-05 04:46 | 41.44483 | 12.22939 | 34085 ft | 345 kts | 307° |
| 2026-05-05 04:46 | 41.47811 | 12.18331 | 34074 ft | 344 kts | 307° |
| 2026-05-05 04:47 | 41.51075 | 12.13641 | 34071 ft | 341 kts | 305° |
| 2026-05-05 04:47 | 41.54124 | 12.08794 | 34073 ft | 340 kts | 303° |
| 2026-05-05 04:48 | 41.57129 | 12.03919 | 34075 ft | 341 kts | 302° |
| 2026-05-05 04:48 | 41.60202 | 11.98989 | 34068 ft | 347 kts | 302° |
| 2026-05-05 04:49 | 41.63314 | 11.94046 | 34067 ft | 348 kts | 302° |
| 2026-05-05 04:49 | 41.66428 | 11.89086 | 34059 ft | 348 kts | 302° |
| 2026-05-05 04:50 | 41.69537 | 11.84116 | 34059 ft | 348 kts | 302° |
| 2026-05-05 04:50 | 41.72647 | 11.79142 | 34059 ft | 348 kts | 302° |
| 2026-05-05 04:51 | 41.75752 | 11.74172 | 34054 ft | 348 kts | 302° |
| 2026-05-05 04:51 | 41.78859 | 11.69189 | 34054 ft | 348 kts | 302° |
| 2026-05-05 04:52 | 41.81966 | 11.64197 | 34069 ft | 351 kts | 301° |
| 2026-05-05 04:52 | 41.85089 | 11.59163 | 34046 ft | 352 kts | 301° |
| 2026-05-05 04:53 | 41.88243 | 11.54084 | 34043 ft | 352 kts | 301° |
| 2026-05-05 04:53 | 41.91344 | 11.49067 | 34043 ft | 351 kts | 301° |
| 2026-05-05 04:54 | 41.94465 | 11.44013 | 34035 ft | 352 kts | 301° |
| 2026-05-05 04:54 | 41.97608 | 11.38926 | 34035 ft | 352 kts | 301° |
| 2026-05-05 04:55 | 42.00708 | 11.33894 | 34035 ft | 351 kts | 301° |
| 2026-05-05 04:55 | 42.03838 | 11.28798 | 34034 ft | 350 kts | 300° |
| 2026-05-05 04:56 | 42.06914 | 11.23795 | 34042 ft | 351 kts | 300° |
| 2026-05-05 04:56 | 42.10057 | 11.18657 | 34029 ft | 355 kts | 300° |
| 2026-05-05 04:57 | 42.13190 | 11.13527 | 34028 ft | 355 kts | 300° |
| 2026-05-05 04:57 | 42.16328 | 11.08379 | 34030 ft | 355 kts | 300° |